Time;durP1;ratioP1;P1;durP2;ratioP2;P2;SDS_P1;SDS_P2;PMS_P1;PMS_P2;Temp;Humidity;BMP_temperature;BMP_pressure;BME280_temperature;BME280_humidity;BME280_pressure;Samples;Min_cycle;Max_cycle;Signal;HPM_P1;HPM_P2
2022/06/22 00:01:39;;;;;;;0.00;0.00;;;13.60;99.90;;;;;;5019964;28;20710;-59
2022/06/22 00:04:06;;;;;;;0.00;0.00;;;13.80;99.90;;;;;;5020517;28;20507;-58
2022/06/22 00:06:45;;;;;;;0.00;0.00;;;13.70;99.90;;;;;;5020465;28;20045;-59
2022/06/22 00:09:28;;;;;;;0.00;0.00;;;13.50;99.90;;;;;;5020968;28;20507;-60
2022/06/22 00:11:57;;;;;;;0.00;0.00;;;13.40;99.90;;;;;;5020297;28;20099;-59
2022/06/22 00:14:46;;;;;;;0.00;0.00;;;13.30;99.90;;;;;;5018962;28;20050;-59
2022/06/22 00:17:34;;;;;;;0.00;0.00;;;13.20;99.90;;;;;;5020471;28;20045;-59
2022/06/22 00:20:05;;;;;;;0.10;0.10;;;13.10;99.90;;;;;;5019709;28;20136;-60
2022/06/22 00:22:46;;;;;;;0.00;0.00;;;13.10;99.90;;;;;;5019837;28;20084;-60
2022/06/22 00:25:31;;;;;;;0.00;0.00;;;13.00;99.90;;;;;;5019919;28;20374;-59
2022/06/22 00:28:30;;;;;;;0.00;0.00;;;13.00;99.90;;;;;;5019655;28;20041;-58
2022/06/22 00:31:15;;;;;;;0.00;0.00;;;13.00;99.90;;;;;;5019108;28;20048;-59
2022/06/22 00:34:10;;;;;;;0.00;0.00;;;12.90;99.90;;;;;;5019700;28;20045;-59
2022/06/22 00:36:50;;;;;;;0.00;0.00;;;12.80;99.90;;;;;;5010488;28;20075;-60
2022/06/22 00:39:20;;;;;;;0.00;0.00;;;12.80;99.90;;;;;;5018680;28;20115;-58
2022/06/22 00:41:55;;;;;;;0.00;0.00;;;12.80;99.90;;;;;;5018822;28;20084;-59
2022/06/22 00:44:22;;;;;;;0.00;0.00;;;12.80;99.90;;;;;;5020534;28;20041;-59
2022/06/22 00:47:07;;;;;;;0.00;0.00;;;12.80;99.90;;;;;;5028480;28;20042;-59
2022/06/22 00:49:35;;;;;;;0.00;0.00;;;12.80;99.90;;;;;;5019154;28;20101;-60
2022/06/22 00:52:05;;;;;;;0.00;0.00;;;12.80;99.90;;;;;;5018658;28;20073;-59
2022/06/22 00:54:33;;;;;;;0.00;0.00;;;12.80;99.90;;;;;;5019723;28;20120;-59
2022/06/22 00:57:19;;;;;;;0.00;0.00;;;12.80;99.90;;;;;;5019295;28;20045;-57
2022/06/22 00:59:52;;;;;;;0.00;0.00;;;12.80;99.90;;;;;;5019014;28;20045;-59
2022/06/22 01:02:42;;;;;;;0.00;0.00;;;12.70;99.90;;;;;;5018965;28;20057;-60
2022/06/22 01:05:19;;;;;;;0.00;0.00;;;12.70;99.90;;;;;;5019144;28;20443;-59
2022/06/22 01:08:00;;;;;;;0.00;0.00;;;12.60;99.90;;;;;;5019734;28;20046;-58
2022/06/22 01:10:26;;;;;;;0.05;0.05;;;12.70;99.90;;;;;;5012344;23;20058;-58
2022/06/22 01:13:03;;;;;;;0.00;0.00;;;12.70;99.90;;;;;;5003338;28;20050;-58
2022/06/22 01:15:44;;;;;;;0.00;0.00;;;12.60;99.90;;;;;;4985581;28;20057;-59
2022/06/22 01:18:29;;;;;;;0.00;0.00;;;12.70;99.90;;;;;;4980029;28;20695;-59
2022/06/22 01:21:09;;;;;;;0.00;0.00;;;12.70;99.90;;;;;;4977812;28;20054;-59
2022/06/22 01:23:51;;;;;;;0.00;0.00;;;12.70;99.90;;;;;;4978636;28;20504;-59
2022/06/22 01:26:29;;;;;;;0.00;0.00;;;12.70;99.90;;;;;;4977978;28;20132;-59
2022/06/22 01:29:00;;;;;;;0.00;0.00;;;12.70;99.90;;;;;;4979303;28;20397;-59
2022/06/22 01:31:27;;;;;;;0.00;0.00;;;12.80;99.90;;;;;;4979741;28;20050;-60
2022/06/22 01:33:54;;;;;;;0.00;0.00;;;12.70;99.90;;;;;;4977817;28;20050;-59
2022/06/22 01:36:25;;;;;;;0.00;0.00;;;12.70;99.90;;;;;;4979630;28;20141;-59
2022/06/22 01:38:51;;;;;;;0.00;0.00;;;12.70;99.90;;;;;;4979279;28;20054;-59
2022/06/22 01:41:54;;;;;;;0.00;0.00;;;12.70;99.90;;;;;;4978646;28;20046;-58
2022/06/22 01:44:33;;;;;;;0.00;0.00;;;12.80;99.90;;;;;;4980898;28;20120;-59
2022/06/22 01:47:24;;;;;;;0.00;0.00;;;12.80;99.90;;;;;;4988185;28;20042;-59
2022/06/22 01:50:02;;;;;;;0.00;0.00;;;12.70;99.90;;;;;;4978676;28;20089;-59
2022/06/22 01:52:39;;;;;;;0.00;0.00;;;12.70;99.90;;;;;;4994597;28;20061;-59
2022/06/22 01:55:28;;;;;;;0.00;0.00;;;12.60;99.90;;;;;;4979097;28;20104;-58
2022/06/22 01:58:26;;;;;;;0.00;0.00;;;12.40;99.90;;;;;;4979125;28;20054;-58
2022/06/22 02:01:01;;;;;;;0.00;0.00;;;12.30;99.90;;;;;;4978697;28;20053;-58
2022/06/22 02:03:39;;;;;;;0.00;0.00;;;12.20;99.90;;;;;;4978967;28;20125;-59
2022/06/22 02:09:10;;;;;;;0.00;0.00;;;11.90;99.90;;;;;;4977889;28;20062;-58
2022/06/22 02:11:42;;;;;;;0.00;0.00;;;11.80;99.90;;;;;;4978932;28;20465;-59
2022/06/22 02:14:16;;;;;;;0.00;0.00;;;11.80;99.90;;;;;;4978467;28;20053;-59
2022/06/22 02:16:56;;;;;;;0.00;0.00;;;11.80;99.90;;;;;;4978688;28;20092;-58
2022/06/22 02:19:22;;;;;;;0.00;0.00;;;11.90;99.90;;;;;;4978904;28;20045;-59
2022/06/22 02:21:50;;;;;;;0.00;0.00;;;11.90;99.90;;;;;;4979301;28;20043;-59
2022/06/22 02:24:18;;;;;;;0.00;0.00;;;11.90;99.90;;;;;;4978280;28;20072;-59
2022/06/22 02:26:52;;;;;;;0.00;0.00;;;11.90;99.90;;;;;;4979032;28;20089;-58
2022/06/22 02:29:23;;;;;;;0.00;0.00;;;11.80;99.90;;;;;;4977757;28;20556;-58
2022/06/22 02:31:51;;;;;;;0.00;0.00;;;11.80;99.90;;;;;;4978096;28;20189;-58
2022/06/22 02:34:17;;;;;;;0.00;0.00;;;11.60;99.90;;;;;;4978708;28;20042;-58
2022/06/22 02:36:48;;;;;;;0.00;0.00;;;11.50;99.90;;;;;;4994107;28;20066;-58
2022/06/22 02:39:15;;;;;;;0.00;0.00;;;11.20;99.90;;;;;;4977132;28;20054;-60
2022/06/22 02:44:33;;;;;;;0.00;0.00;;;11.40;99.90;;;;;;4980513;28;20046;-59
2022/06/22 02:47:11;;;;;;;0.00;0.00;;;11.40;99.90;;;;;;4986924;28;20034;-58
2022/06/22 02:49:42;;;;;;;0.00;0.00;;;11.40;99.90;;;;;;4978616;28;20047;-59
2022/06/22 02:52:11;;;;;;;0.00;0.00;;;11.30;99.90;;;;;;4977700;28;20050;-59
2022/06/22 02:54:44;;;;;;;0.00;0.00;;;11.30;99.90;;;;;;4978335;28;20038;-58
2022/06/22 02:57:21;;;;;;;0.00;0.00;;;11.20;99.90;;;;;;4978394;28;20057;-59
2022/06/22 02:59:49;;;;;;;0.00;0.00;;;11.20;99.90;;;;;;4977828;28;20054;-59
2022/06/22 03:02:16;;;;;;;0.00;0.00;;;11.20;99.90;;;;;;4978955;28;20042;-59
2022/06/22 03:04:44;;;;;;;0.00;0.00;;;11.20;99.90;;;;;;4977813;28;20532;-60
2022/06/22 03:07:10;;;;;;;0.00;0.00;;;11.10;99.90;;;;;;4977010;28;20470;-59
2022/06/22 03:09:37;;;;;;;0.00;0.00;;;11.00;99.90;;;;;;4977852;28;20173;-59
2022/06/22 03:12:04;;;;;;;0.00;0.00;;;11.00;99.90;;;;;;4978248;28;20433;-58
2022/06/22 03:14:44;;;;;;;0.00;0.00;;;11.00;99.90;;;;;;4977684;28;20129;-59
2022/06/22 03:17:17;;;;;;;0.00;0.00;;;10.90;99.90;;;;;;4978116;28;20081;-57
2022/06/22 03:19:45;;;;;;;0.00;0.00;;;10.90;99.90;;;;;;4978715;28;20046;-59
2022/06/22 03:22:17;;;;;;;0.00;0.00;;;10.90;99.90;;;;;;4977881;28;20047;-59
2022/06/22 03:24:53;;;;;;;0.00;0.00;;;10.90;99.90;;;;;;4978969;28;20488;-58
2022/06/22 03:27:24;;;;;;;0.10;0.10;;;10.80;99.90;;;;;;4977684;28;20487;-58
2022/06/22 03:29:58;;;;;;;0.00;0.00;;;10.80;99.90;;;;;;4977609;28;20178;-59
2022/06/22 03:32:42;;;;;;;0.00;0.00;;;10.80;99.90;;;;;;4978404;28;20072;-59
2022/06/22 03:35:33;;;;;;;0.00;0.00;;;10.80;99.90;;;;;;4977700;28;20118;-60
2022/06/22 03:38:32;;;;;;;0.00;0.00;;;10.80;99.90;;;;;;4992927;28;20065;-58
2022/06/22 03:41:03;;;;;;;0.00;0.00;;;10.80;99.90;;;;;;4977011;28;20148;-58
2022/06/22 03:43:44;;;;;;;0.00;0.00;;;10.90;99.90;;;;;;4977846;28;20505;-59
2022/06/22 03:46:14;;;;;;;0.00;0.00;;;11.00;99.90;;;;;;4986000;28;20049;-58
2022/06/22 03:48:45;;;;;;;0.00;0.00;;;11.00;99.90;;;;;;4997673;28;20108;-59
2022/06/22 03:51:23;;;;;;;0.00;0.00;;;11.10;99.90;;;;;;4999058;28;20057;-58
2022/06/22 03:53:59;;;;;;;0.00;0.00;;;11.00;99.90;;;;;;5001271;28;20037;-59
2022/06/22 03:56:32;;;;;;;0.00;0.00;;;11.20;99.90;;;;;;5000286;28;20447;-60
2022/06/22 03:59:00;;;;;;;0.00;0.00;;;11.20;99.90;;;;;;5000143;28;20050;-58
2022/06/22 04:01:26;;;;;;;0.00;0.00;;;11.30;99.90;;;;;;5000745;28;20530;-59
2022/06/22 04:03:54;;;;;;;0.00;0.00;;;11.40;99.90;;;;;;5000914;28;20129;-58
2022/06/22 04:06:37;;;;;;;0.00;0.00;;;11.50;99.90;;;;;;5000888;28;20048;-58
2022/06/22 04:09:10;;;;;;;0.00;0.00;;;11.50;99.90;;;;;;5000566;28;20173;-58
2022/06/22 04:12:15;;;;;;;0.00;0.00;;;11.60;99.90;;;;;;4999945;28;20058;-59
2022/06/22 04:14:53;;;;;;;0.00;0.00;;;11.90;99.90;;;;;;4991361;28;20066;-59
2022/06/22 04:17:46;;;;;;;0.00;0.00;;;12.40;99.90;;;;;;5000489;28;20479;-59
2022/06/22 04:20:18;;;;;;;0.05;0.00;;;12.20;99.90;;;;;;4999749;28;20120;-58
2022/06/22 04:22:48;;;;;;;0.00;0.00;;;12.60;99.90;;;;;;5001042;28;20075;-59
2022/06/22 04:25:34;;;;;;;0.00;0.00;;;12.60;99.90;;;;;;5000996;28;20084;-58
2022/06/22 04:28:03;;;;;;;0.00;0.00;;;12.70;99.90;;;;;;5000269;28;20085;-59
2022/06/22 04:30:37;;;;;;;0.00;0.00;;;12.80;99.90;;;;;;4999315;28;20071;-59
2022/06/22 04:33:11;;;;;;;0.00;0.00;;;12.80;99.90;;;;;;4999608;28;20077;-59
2022/06/22 04:36:00;;;;;;;0.00;0.00;;;12.90;99.90;;;;;;5000402;28;20400;-59
2022/06/22 04:38:36;;;;;;;0.00;0.00;;;13.00;99.90;;;;;;4997805;28;20846;-60
2022/06/22 04:41:31;;;;;;;0.00;0.00;;;13.10;99.90;;;;;;4998467;28;20082;-59
2022/06/22 04:44:01;;;;;;;0.00;0.00;;;13.20;99.90;;;;;;4995805;28;20645;-59
2022/06/22 04:46:36;;;;;;;0.00;0.00;;;13.30;99.90;;;;;;4989410;28;20081;-58
2022/06/22 04:49:25;;;;;;;0.00;0.00;;;13.40;99.90;;;;;;4997689;28;20100;-58
2022/06/22 04:51:56;;;;;;;0.00;0.00;;;13.60;99.90;;;;;;4999991;28;20042;-58
2022/06/22 04:54:32;;;;;;;0.00;0.00;;;13.80;99.90;;;;;;4999312;28;20103;-59
2022/06/22 04:57:04;;;;;;;0.00;0.00;;;14.30;99.90;;;;;;4999916;28;20056;-59
2022/06/22 04:59:31;;;;;;;0.00;0.00;;;14.80;99.90;;;;;;4998560;28;20085;-59
2022/06/22 05:02:02;;;;;;;0.00;0.00;;;15.20;99.90;;;;;;4998250;28;20038;-59
2022/06/22 05:04:35;;;;;;;0.17;0.17;;;15.50;99.90;;;;;;4999624;28;20041;-59
2022/06/22 05:07:12;;;;;;;0.00;0.00;;;15.70;99.90;;;;;;4999725;28;20096;-59
2022/06/22 05:09:54;;;;;;;0.00;0.00;;;16.10;99.90;;;;;;4999292;28;20460;-60
2022/06/22 05:12:24;;;;;;;0.00;0.00;;;16.50;99.90;;;;;;4997860;28;20058;-59
2022/06/22 05:14:53;;;;;;;0.00;0.00;;;16.90;99.90;;;;;;4998638;28;20045;-59
2022/06/22 05:17:46;;;;;;;0.00;0.00;;;17.20;99.90;;;;;;4999392;28;20536;-59
2022/06/22 05:20:21;;;;;;;0.00;0.00;;;17.50;99.90;;;;;;4997688;28;20095;-59
2022/06/22 05:22:48;;;;;;;0.00;0.00;;;17.60;99.90;;;;;;4999561;28;20081;-59
2022/06/22 05:25:15;;;;;;;0.00;0.00;;;17.80;99.90;;;;;;4999821;28;20038;-59
2022/06/22 05:28:08;;;;;;;0.00;0.00;;;18.10;99.90;;;;;;4998660;28;20408;-59
2022/06/22 05:30:42;;;;;;;0.00;0.00;;;18.40;99.90;;;;;;4998387;28;20417;-59
2022/06/22 05:33:10;;;;;;;;;;;18.80;99.90;;;;;;4997285;28;20046;-59
2022/06/22 05:35:40;;;;;;;0.00;0.00;;;18.90;99.90;;;;;;4997647;28;19921;-59
2022/06/22 05:38:09;;;;;;;0.00;0.00;;;19.20;99.90;;;;;;4998955;28;20054;-59
2022/06/22 05:40:38;;;;;;;0.00;0.00;;;19.30;99.90;;;;;;4998231;28;20057;-60
2022/06/22 05:43:05;;;;;;;0.00;0.00;;;19.20;99.90;;;;;;4998952;28;20053;-59
2022/06/22 05:45:43;;;;;;;0.00;0.00;;;19.20;99.90;;;;;;4992048;28;20511;-59
2022/06/22 05:48:26;;;;;;;0.00;0.00;;;19.30;99.90;;;;;;4979651;28;20397;-59
2022/06/22 05:51:25;;;;;;;0.00;0.00;;;19.50;99.90;;;;;;4979241;28;20042;-59
2022/06/22 05:53:53;;;;;;;0.00;0.00;;;19.60;99.90;;;;;;4979102;28;20360;-59
2022/06/22 05:56:43;;;;;;;0.00;0.00;;;19.80;99.90;;;;;;4979287;28;20090;-59
2022/06/22 05:59:12;;;;;;;0.00;0.00;;;20.00;99.90;;;;;;4978492;28;20693;-59
2022/06/22 06:01:43;;;;;;;0.00;0.00;;;20.10;99.90;;;;;;4979411;28;20061;-59
2022/06/22 06:04:20;;;;;;;0.00;0.00;;;20.30;99.90;;;;;;4978210;28;20548;-59
2022/06/22 06:06:47;;;;;;;0.08;0.08;;;20.40;99.90;;;;;;4979363;28;20046;-59
2022/06/22 06:09:19;;;;;;;0.00;0.00;;;20.20;99.90;;;;;;4979155;28;20527;-60
2022/06/22 06:11:56;;;;;;;0.13;0.00;;;20.20;99.90;;;;;;4978663;28;20046;-58
2022/06/22 06:14:30;;;;;;;0.00;0.00;;;20.30;99.90;;;;;;4978183;28;20046;-59
2022/06/22 06:17:01;;;;;;;0.00;0.00;;;20.80;99.90;;;;;;4979105;28;20126;-59
2022/06/22 06:19:34;;;;;;;0.40;0.10;;;21.00;99.90;;;;;;4978740;28;20046;-59
2022/06/22 06:22:04;;;;;;;0.00;0.00;;;21.40;99.90;;;;;;4978789;28;20038;-59
2022/06/22 06:27:35;;;;;;;0.00;0.00;;;21.70;99.90;;;;;;4978729;28;20077;-59
2022/06/22 06:30:15;;;;;;;0.00;0.00;;;21.60;99.90;;;;;;4977317;28;20104;-59
2022/06/22 06:33:02;;;;;;;0.00;0.00;;;21.70;99.90;;;;;;4979024;28;20043;-59
2022/06/22 06:35:36;;;;;;;0.00;0.00;;;21.80;99.90;;;;;;4977846;28;20093;-59
2022/06/22 06:38:13;;;;;;;0.00;0.00;;;22.00;99.90;;;;;;4978406;28;20172;-59
2022/06/22 06:40:42;;;;;;;0.00;0.00;;;22.00;99.90;;;;;;4977731;28;20050;-59
2022/06/22 06:43:13;;;;;;;0.00;0.00;;;22.10;99.90;;;;;;4977781;28;20108;-59
2022/06/22 06:45:41;;;;;;;0.00;0.00;;;22.10;99.90;;;;;;4988015;28;20053;-59
2022/06/22 06:48:13;;;;;;;0.00;0.00;;;22.00;99.90;;;;;;4978884;28;20342;-60
2022/06/22 06:50:45;;;;;;;0.00;0.00;;;22.20;99.90;;;;;;4978570;28;20121;-59
2022/06/22 06:53:41;;;;;;;0.00;0.00;;;22.10;99.90;;;;;;4978826;28;20094;-59
2022/06/22 06:56:21;;;;;;;0.05;0.00;;;22.40;99.90;;;;;;4978377;28;20040;-59
2022/06/22 06:59:03;;;;;;;0.00;0.00;;;22.30;99.90;;;;;;4977630;28;20514;-60
2022/06/22 07:01:36;;;;;;;1.08;0.05;;;22.40;99.90;;;;;;4978636;28;20511;-59
2022/06/22 07:04:07;;;;;;;0.00;0.00;;;22.60;99.90;;;;;;4977872;28;20100;-60
2022/06/22 07:06:34;;;;;;;0.00;0.00;;;22.70;99.90;;;;;;4977255;28;20153;-60
2022/06/22 07:09:09;;;;;;;0.00;0.00;;;22.70;99.90;;;;;;4977908;28;20068;-59
2022/06/22 07:11:41;;;;;;;0.00;0.00;;;22.30;99.90;;;;;;4978466;28;20092;-59
2022/06/22 07:14:26;;;;;;;0.00;0.00;;;22.50;99.90;;;;;;4977817;28;20443;-60
2022/06/22 07:16:57;;;;;;;0.00;0.00;;;22.70;99.90;;;;;;4978172;28;20421;-59
2022/06/22 07:19:28;;;;;;;0.00;0.00;;;22.60;99.90;;;;;;4977101;28;20050;-59
2022/06/22 07:22:07;;;;;;;0.00;0.00;;;22.80;99.90;;;;;;4978054;28;20413;-59
2022/06/22 07:24:35;;;;;;;0.00;0.00;;;22.60;99.90;;;;;;4979436;28;20034;-59
2022/06/22 07:27:03;;;;;;;0.00;0.00;;;22.70;99.90;;;;;;4981932;28;20176;-60
2022/06/22 07:29:41;;;;;;;0.00;0.00;;;22.70;99.90;;;;;;4980812;28;20787;-59
2022/06/22 07:32:33;;;;;;;0.00;0.00;;;22.40;99.90;;;;;;4981043;28;20042;-60
2022/06/22 07:35:24;;;;;;;0.00;0.00;;;22.50;99.90;;;;;;4981746;28;20042;-60
2022/06/22 07:38:01;;;;;;;0.00;0.00;;;22.90;99.90;;;;;;4981006;28;20050;-59
2022/06/22 07:40:28;;;;;;;0.00;0.00;;;23.00;99.90;;;;;;4996607;28;20057;-60
2022/06/22 07:42:56;;;;;;;0.00;0.00;;;23.00;99.90;;;;;;4980496;28;20413;-61
2022/06/22 07:45:25;;;;;;;0.00;0.00;;;23.10;99.90;;;;;;4988805;28;20073;-61
2022/06/22 07:48:14;;;;;;;0.00;0.00;;;22.80;99.90;;;;;;4983877;28;20061;-58
2022/06/22 07:50:46;;;;;;;0.00;0.00;;;22.90;99.90;;;;;;4981245;28;20564;-60
2022/06/22 07:53:18;;;;;;;0.00;0.00;;;23.00;99.90;;;;;;4981479;28;20039;-57
2022/06/22 07:56:03;;;;;;;0.00;0.00;;;23.10;99.90;;;;;;4981636;28;20405;-60
2022/06/22 07:58:53;;;;;;;0.00;0.00;;;23.00;99.90;;;;;;4980488;28;20050;-60
2022/06/22 08:01:33;;;;;;;0.00;0.00;;;22.90;99.90;;;;;;4980455;28;20553;-60
2022/06/22 08:04:20;;;;;;;0.00;0.00;;;22.90;99.90;;;;;;4981149;28;20078;-58
2022/06/22 08:06:58;;;;;;;0.00;0.00;;;22.70;99.90;;;;;;4981428;28;20433;-57
2022/06/22 08:09:40;;;;;;;0.00;0.00;;;22.80;99.90;;;;;;4980635;28;20101;-60
2022/06/22 08:12:28;;;;;;;0.00;0.00;;;22.60;99.90;;;;;;4980676;28;20792;-61
2022/06/22 08:14:55;;;;;;;0.00;0.00;;;22.80;99.90;;;;;;4980189;28;20052;-57
2022/06/22 08:17:23;;;;;;;0.00;0.00;;;22.90;99.90;;;;;;4979682;28;20053;-57
2022/06/22 08:19:49;;;;;;;0.00;0.00;;;23.10;99.90;;;;;;4980871;28;20571;-57
2022/06/22 08:22:15;;;;;;;0.00;0.00;;;23.00;99.90;;;;;;4981151;28;20118;-57
2022/06/22 08:24:46;;;;;;;0.00;0.00;;;23.10;99.90;;;;;;4981514;28;20054;-58
2022/06/22 08:27:18;;;;;;;0.00;0.00;;;22.90;99.90;;;;;;4980556;28;20042;-57
2022/06/22 08:29:46;;;;;;;0.00;0.00;;;23.00;99.90;;;;;;4980597;28;20116;-57
2022/06/22 08:32:23;;;;;;;0.00;0.00;;;22.50;99.90;;;;;;4980712;28;20433;-60
2022/06/22 08:34:53;;;;;;;0.00;0.00;;;22.70;99.90;;;;;;4980419;28;20061;-58
2022/06/22 08:37:28;;;;;;;0.00;0.00;;;22.90;99.90;;;;;;4994828;28;20301;-61
2022/06/22 08:40:11;;;;;;;0.00;0.00;;;22.90;99.90;;;;;;4979574;28;20437;-59
2022/06/22 08:42:43;;;;;;;0.00;0.00;;;22.80;99.90;;;;;;4980608;28;20049;-60
2022/06/22 08:45:12;;;;;;;0.00;0.00;;;22.80;99.90;;;;;;5000042;28;20054;-58
2022/06/22 08:47:47;;;;;;;0.00;0.00;;;22.90;99.90;;;;;;4985565;28;20397;-59
2022/06/22 08:50:55;;;;;;;0.00;0.00;;;22.60;99.90;;;;;;4995642;28;20046;-60
2022/06/22 08:53:34;;;;;;;0.00;0.00;;;22.80;99.90;;;;;;4995140;28;20046;-57
2022/06/22 08:56:00;;;;;;;0.00;0.00;;;23.10;99.90;;;;;;4978997;28;20053;-62
2022/06/22 08:58:56;;;;;;;0.00;0.00;;;23.50;99.90;;;;;;4979503;28;20704;-61
2022/06/22 09:01:24;;;;;;;0.00;0.00;;;23.90;99.90;;;;;;4978895;28;20046;-59
2022/06/22 09:03:59;;;;;;;0.00;0.00;;;23.90;99.90;;;;;;4980553;28;20050;-55
2022/06/22 09:06:57;;;;;;;0.00;0.00;;;24.10;99.90;;;;;;4979774;28;20136;-59
2022/06/22 09:10:00;;;;;;;0.00;0.00;;;24.20;99.90;;;;;;4979868;28;20057;-58
2022/06/22 09:12:46;;;;;;;0.00;0.00;;;24.20;99.90;;;;;;4979925;28;20054;-59
2022/06/22 09:15:39;;;;;;;0.00;0.00;;;24.30;99.90;;;;;;4979088;28;20042;-59
2022/06/22 09:18:35;;;;;;;0.00;0.00;;;24.30;99.90;;;;;;4979362;28;20046;-59
2022/06/22 09:21:29;;;;;;;0.00;0.00;;;24.40;99.90;;;;;;4979640;28;20042;-59
2022/06/22 09:24:05;;;;;;;0.00;0.00;;;24.30;99.90;;;;;;4978646;28;20050;-59
2022/06/22 09:26:31;;;;;;;0.00;0.00;;;24.50;99.90;;;;;;4979115;28;20049;-59
2022/06/22 09:29:01;;;;;;;0.00;0.00;;;24.40;99.90;;;;;;4978826;28;20046;-58
2022/06/22 09:31:29;;;;;;;0.00;0.00;;;24.70;99.90;;;;;;4993152;28;20046;-60
2022/06/22 09:34:07;;;;;;;0.00;0.00;;;24.60;99.90;;;;;;4979546;28;20409;-62
2022/06/22 09:36:53;;;;;;;0.00;0.00;;;24.60;99.90;;;;;;4979230;28;20081;-61
2022/06/22 09:39:38;;;;;;;0.00;0.00;;;24.70;99.90;;;;;;4979150;28;20042;-61
2022/06/22 09:42:10;;;;;;;0.00;0.00;;;24.80;99.90;;;;;;4978251;28;20105;-62
2022/06/22 09:44:56;;;;;;;0.00;0.00;;;25.10;99.90;;;;;;4981125;28;20050;-62
2022/06/22 09:47:42;;;;;;;0.00;0.00;;;24.90;99.90;;;;;;4985376;28;20053;-62
2022/06/22 09:50:26;;;;;;;0.00;0.00;;;25.00;99.90;;;;;;4979097;28;20129;-61
2022/06/22 09:53:20;;;;;;;0.00;0.00;;;25.10;99.90;;;;;;4978035;28;20408;-61
2022/06/22 09:56:25;;;;;;;0.00;0.00;;;25.30;99.90;;;;;;4978002;28;20096;-59
2022/06/22 09:59:12;;;;;;;0.00;0.00;;;25.50;99.90;;;;;;4978526;28;20446;-58
2022/06/22 10:01:48;;;;;;;0.00;0.00;;;25.40;99.90;;;;;;4978658;28;20464;-59
2022/06/22 10:04:31;;;;;;;0.00;0.00;;;25.50;99.90;;;;;;4979534;28;20053;-61
2022/06/22 10:07:18;;;;;;;0.00;0.00;;;25.60;99.90;;;;;;4978979;28;20065;-59
2022/06/22 10:09:49;;;;;;;0.00;0.00;;;25.70;99.90;;;;;;4979102;28;20054;-59
2022/06/22 10:12:33;;;;;;;0.00;0.00;;;26.00;99.90;;;;;;4978646;28;20133;-59
2022/06/22 10:15:14;;;;;;;0.00;0.00;;;25.70;99.90;;;;;;4978952;28;20047;-62
2022/06/22 10:17:42;;;;;;;0.00;0.00;;;25.80;99.90;;;;;;4978582;28;20054;-61
2022/06/22 10:20:32;;;;;;;0.00;0.00;;;26.00;99.90;;;;;;4978860;28;20164;-60
2022/06/22 10:23:27;;;;;;;0.00;0.00;;;26.00;99.90;;;;;;4978649;28;20540;-62
2022/06/22 10:26:07;;;;;;;0.05;0.00;;;26.00;99.90;;;;;;4972720;28;20516;-59
2022/06/22 10:28:51;;;;;;;0.00;0.00;;;25.90;99.90;;;;;;4977593;28;20429;-60
2022/06/22 10:31:46;;;;;;;0.00;0.00;;;25.80;99.90;;;;;;4977835;28;20050;-58
2022/06/22 10:34:27;;;;;;;0.00;0.00;;;26.30;99.90;;;;;;4978806;28;20046;-59
2022/06/22 10:37:14;;;;;;;0.00;0.00;;;26.20;99.90;;;;;;4978134;28;20065;-59
2022/06/22 10:40:12;;;;;;;0.30;0.20;;;26.40;99.90;;;;;;4978393;28;20489;-61
2022/06/22 10:45:49;;;;;;;0.00;0.00;;;25.70;99.90;;;;;;4988696;28;20046;-59
2022/06/22 10:48:51;;;;;;;0.00;0.00;;;26.10;99.90;;;;;;4978850;28;20042;-61
2022/06/22 10:51:47;;;;;;;0.00;0.00;;;25.70;99.90;;;;;;4978205;28;20049;-60
2022/06/22 10:54:50;;;;;;;0.00;0.00;;;25.90;99.90;;;;;;4978834;28;20056;-60
2022/06/22 10:57:50;;;;;;;0.00;0.00;;;26.10;99.90;;;;;;4977656;28;20050;-60
2022/06/22 11:00:38;;;;;;;0.00;0.00;;;26.30;99.90;;;;;;4980199;28;20054;-57
2022/06/22 11:03:22;;;;;;;0.03;0.00;;;26.10;99.90;;;;;;4981870;28;20050;-55
2022/06/22 11:06:16;;;;;;;0.00;0.00;;;26.20;99.90;;;;;;4981150;28;20129;-60
2022/06/22 11:09:23;;;;;;;0.00;0.00;;;26.50;99.90;;;;;;4982867;28;20050;-57
2022/06/22 11:12:06;;;;;;;0.00;0.00;;;26.90;99.90;;;;;;4979726;28;20061;-62
2022/06/22 11:14:37;;;;;;;0.00;0.00;;;27.30;99.90;;;;;;4981306;28;20050;-61
2022/06/22 11:17:41;;;;;;;0.00;0.00;;;27.30;99.90;;;;;;4981864;28;20281;-63
2022/06/22 11:20:19;;;;;;;0.00;0.00;;;27.30;99.90;;;;;;4981908;28;20046;-62
2022/06/22 11:23:03;;;;;;;0.00;0.00;;;26.90;99.90;;;;;;4982316;28;20458;-61
2022/06/22 11:32:16;;;;;;;0.00;0.00;;;27.00;99.90;;;;;;4981900;28;20050;-62
2022/06/22 11:34:51;;;;;;;0.28;0.20;;;27.30;99.90;;;;;;4981558;28;20410;-62
2022/06/22 11:37:35;;;;;;;0.00;0.00;;;27.00;99.90;;;;;;4996604;28;20086;-62
2022/06/22 11:40:14;;;;;;;;;;;27.10;99.90;;;;;;4979814;28;20053;-62
2022/06/22 11:43:05;;;;;;;0.00;0.00;;;27.10;99.90;;;;;;4980681;28;20008;-61
2022/06/22 11:46:11;;;;;;;0.00;0.00;;;27.40;99.90;;;;;;4988881;28;20056;-61
2022/06/22 11:49:21;;;;;;;0.00;0.00;;;27.20;99.90;;;;;;4980841;28;20169;-63
2022/06/22 11:51:59;;;;;;;0.00;0.00;;;27.20;99.90;;;;;;4980377;28;20069;-62
2022/06/22 11:54:47;;;;;;;0.00;0.00;;;27.00;99.90;;;;;;4981820;28;20053;-62
2022/06/22 11:57:56;;;;;;;0.00;0.00;;;27.00;99.90;;;;;;4980190;28;20058;-62
2022/06/22 12:00:27;;;;;;;0.00;0.00;;;26.70;99.90;;;;;;4980653;28;20051;-62
2022/06/22 12:03:29;;;;;;;0.00;0.00;;;26.70;99.90;;;;;;4979937;28;20095;-62
2022/06/22 12:06:02;;;;;;;0.00;0.00;;;26.70;99.90;;;;;;4980362;28;20046;-62
2022/06/22 12:08:49;;;;;;;0.00;0.00;;;26.70;99.90;;;;;;4980825;28;20138;-62
2022/06/22 12:11:30;;;;;;;0.00;0.00;;;26.70;99.90;;;;;;4983066;28;20454;-62
2022/06/22 12:17:19;;;;;;;0.00;0.00;;;26.90;99.90;;;;;;4980450;28;20054;-63
2022/06/22 12:20:08;;;;;;;0.00;0.00;;;27.00;99.90;;;;;;4980176;28;20413;-62
2022/06/22 12:22:40;;;;;;;0.10;0.10;;;26.80;99.90;;;;;;4980583;28;20045;-60
2022/06/22 12:25:42;;;;;;;0.00;0.00;;;27.00;99.90;;;;;;4980364;28;20051;-61
2022/06/22 12:28:29;;;;;;;0.00;0.00;;;27.20;99.90;;;;;;4966047;28;20157;-61
2022/06/22 12:30:55;;;;;;;0.10;0.10;;;27.30;99.90;;;;;;5000261;28;20053;-61
2022/06/22 12:33:30;;;;;;;0.00;0.00;;;27.20;99.90;;;;;;4999820;28;20042;-61
2022/06/22 12:36:10;;;;;;;0.10;0.10;;;27.30;99.90;;;;;;4998966;28;20057;-63
2022/06/22 12:38:42;;;;;;;0.00;0.00;;;27.30;99.90;;;;;;4999979;28;20276;-61
2022/06/22 12:41:10;;;;;;;0.00;0.00;;;27.40;99.90;;;;;;5000315;28;20392;-62
2022/06/22 12:43:38;;;;;;;0.00;0.00;;;27.10;99.90;;;;;;4998742;28;20045;-61
2022/06/22 12:46:38;;;;;;;0.00;0.00;;;27.10;99.90;;;;;;4991714;28;20734;-62
2022/06/22 12:49:31;;;;;;;0.30;0.00;;;27.20;99.90;;;;;;4980420;28;20061;-61
2022/06/22 12:52:15;;;;;;;0.00;0.00;;;27.10;99.90;;;;;;4980360;28;20452;-62
2022/06/22 12:54:52;;;;;;;0.00;0.00;;;27.20;99.90;;;;;;4980920;28;20143;-62
2022/06/22 12:57:29;;;;;;;0.00;0.00;;;27.10;99.90;;;;;;4979294;28;20077;-61
2022/06/22 13:00:16;;;;;;;0.00;0.00;;;26.90;99.90;;;;;;4980089;28;20042;-61
2022/06/22 13:02:44;;;;;;;0.00;0.00;;;27.00;99.90;;;;;;4980520;28;20057;-60
2022/06/22 13:05:14;;;;;;;0.00;0.00;;;27.10;99.90;;;;;;4979658;28;20046;-61
2022/06/22 13:07:46;;;;;;;0.00;0.00;;;27.20;99.90;;;;;;4980032;28;20051;-61
2022/06/22 13:10:18;;;;;;;0.00;0.00;;;27.20;99.90;;;;;;4984091;28;20045;-61
2022/06/22 13:13:06;;;;;;;0.10;0.00;;;26.90;99.90;;;;;;4986162;28;20113;-62
2022/06/22 13:15:40;;;;;;;0.00;0.00;;;27.00;99.90;;;;;;4986517;28;20072;-61
2022/06/22 13:18:27;;;;;;;0.00;0.00;;;26.90;99.90;;;;;;4986803;28;20258;-61
2022/06/22 13:21:04;;;;;;;0.00;0.00;;;26.70;99.90;;;;;;4986662;28;20046;-61
2022/06/22 13:23:55;;;;;;;0.00;0.00;;;26.80;99.90;;;;;;4986047;28;20077;-61
2022/06/22 13:26:58;;;;;;;0.00;0.00;;;27.00;99.90;;;;;;4985913;28;20052;-62
2022/06/22 13:29:50;;;;;;;0.00;0.00;;;27.00;99.90;;;;;;4986459;28;20050;-62
2022/06/22 13:32:17;;;;;;;0.00;0.00;;;27.00;99.90;;;;;;4986329;28;20050;-61
2022/06/22 13:34:51;;;;;;;0.00;0.00;;;27.10;99.90;;;;;;4987490;28;20441;-61
2022/06/22 13:37:35;;;;;;;;;;;27.20;99.90;;;;;;4985403;28;20089;-61
2022/06/22 13:40:12;;;;;;;0.00;0.00;;;27.30;99.90;;;;;;4986349;28;19961;-61
2022/06/22 13:42:44;;;;;;;0.00;0.00;;;27.50;99.90;;;;;;4984300;28;20125;-61
2022/06/22 13:45:31;;;;;;;0.00;0.00;;;27.20;99.90;;;;;;4986173;28;20551;-61
2022/06/22 13:48:18;;;;;;;0.00;0.00;;;27.30;99.90;;;;;;4984907;28;20042;-62
2022/06/22 13:51:09;;;;;;;0.00;0.00;;;27.40;99.90;;;;;;4986211;28;20034;-61
2022/06/22 13:53:54;;;;;;;0.00;0.00;;;27.20;99.90;;;;;;4985738;28;20103;-61
2022/06/22 13:56:20;;;;;;;0.10;0.10;;;27.30;99.90;;;;;;4986351;28;20064;-61
2022/06/22 13:58:50;;;;;;;0.00;0.00;;;27.30;99.90;;;;;;4984637;28;20042;-61
2022/06/22 14:01:31;;;;;;;0.00;0.00;;;27.20;99.90;;;;;;4985335;28;20057;-61
2022/06/22 14:04:22;;;;;;;0.00;0.00;;;27.20;99.90;;;;;;4984554;28;20042;-61
2022/06/22 14:06:59;;;;;;;0.00;0.00;;;27.10;99.90;;;;;;4985265;28;20073;-61
2022/06/22 14:09:51;;;;;;;0.00;0.00;;;27.00;99.90;;;;;;4984509;28;20081;-61